Holly Springs, MS (38634)

7:29 PM CDT on October 01, 2014 (GMT -0500)
Frazier Road | Change Station
CLOSE
Current Station
Personal Weather Station
Location: Rossville, TN
Elevation: 364 ft
Nearby Weather Stations

Elev 364 ft 35.03 °N, 89.53 °W | Updated 4 minutes ago

Partly Cloudy
Partly Cloudy
77.9 °F
Feels Like 80 °F
N
0.0
Wind Variable Wind from ESE
Gusts 0.0 mph

Today
High -- | Low -- °F
--% Chance of Precip.
Yesterday
High -- | Low -- °F
Precip. -- in
6:52 AM 6:41 PM
First Quarter, 52% visible
Pressure 29.88 in
Visibility 10.0 miles
Clouds Few 7000 ft
Mostly Cloudy 25000 ft
Heat Index 80 °F
Dew Point 66 °F
Humidity 68%
Rainfall 0.00 in
Snow Depth Not available.
UV 0.0 out of 12
Pollen 5.70 out of 12
Ozone Good
PM2.5 Moderate
Flu Activity Not available.
METAR KOLV 302350Z 00000KT 10SM FEW070 BKN250 25/19 A2988

More Conditions Fewer Conditions

Pressure 29.88 in
Visibility 10.0 miles
Clouds Few 7000 ft
Mostly Cloudy 25000 ft
Heat Index 80 °F
Dew Point 66 °F
Humidity 68%
Rainfall 0.00 in
Snow Depth Not available.
UV 0.0 out of 12
Pollen 5.70 out of 12
Ozone Good
PM2.5 Moderate
Flu Activity Not available.
METAR KOLV 302350Z 00000KT 10SM FEW070 BKN250 25/19 A2988

More Conditions Fewer Conditions

10-Day Weather Forecast

Almanac

Astronomy

Oct. 01, 2014 Rise Set
Actual Time 6:52 AM CDT 6:41 PM CDT
Civil Twilight 6:27 AM CDT 7:06 PM CDT
Nautical Twilight 5:58 AM CDT 7:36 PM CDT
Astronomical Twilight 5:28 AM CDT 8:05 PM CDT
Moon 1:43 PM CDT (10/1) No Moon Set
Length of Visible Light 12h 39m
Length of Day
11h 49m
Tomorrow will be 2m 9s shorter.
First Quarter, 52% of the Moon is Illuminated
Today
First Quarter
Oct 8
Full
Oct 15
Last Quarter
Oct 23
New
Oct 30
First Quarter

Today's Extremes

State Highs State Lows

Community

WunderPhotos

Upload Photos

1,758,097 photos uploaded!

WunderBlogs® & News

Nearby

Air Quality

  Air Quality AQ Index Pollutant
Yesterday Moderate
OZONE
Yesterday Moderate
PM2.5
Current Moderate
PM2.5
Current Good
OZONE
Wednesday Good
OZONE
Wednesday Good
PM2.5
Thursday Moderate
PM2.5
Thursday Good
OZONE
Friday Good
OZONE
Friday Good
PM2.5

Snow Depth

Station Depth Elevation
No new snow has been reported.

Earthquake Activity

City Distance Mag. Time & Date
No recent earthquake activity has been reported nearby.
Minimum magnitude displayed is 2.5.

Coastal Water Temperatures

Place Temperature
No Stations Reporting

Nearby Weather Stations